Allenville, Missouri
Current Conditions -  °F | °C
As of 6:53 PM on Friday 24 Oct 2014 (Local Time) from KCGI Reporting Station
Clear Clear  
Wind Chill: 59°   Ceiling: Unl
Heat Index: 59°   Visibility: 10mi
Dew Point: 52°   Wind: 5mph
Humidity: 78%   Direction: 170°S
Pressure: 30.05"   Gusts: NA
Location:  37.1651°N, 89.623°W
Report Text: KCGI 242353Z AUTO 17004KT 10SM CLR 15/11 A3005 RMK AO2 SLP174 T01500111 10228 20150 56004 TSNO
Loading
Personal Weather Stations






























Interactive Weather Map
Tropical Storm Tracking
New forecast layout! Learn more

10-Day Weather Forecast

Advertisements
Track Severe Weather on mobile